createdAt,value
2022-08-25T00:00:22.111Z,102075.56
2022-08-25T00:03:05.442Z,102072.95
2022-08-25T00:05:33.731Z,102073.63
2022-08-25T00:08:03.820Z,102070.44
2022-08-25T00:10:37.305Z,102071.80
2022-08-25T00:13:05.993Z,102077.40
2022-08-25T00:15:34.261Z,102076.11
2022-08-25T00:18:02.852Z,102072.55
2022-08-25T00:20:32.052Z,102074.48
2022-08-25T00:23:01.764Z,102072.69
2022-08-25T00:25:29.989Z,102068.39
2022-08-25T00:27:59.323Z,102072.62
2022-08-25T00:30:27.767Z,102072.59
2022-08-25T00:32:57.529Z,102074.50
2022-08-25T00:35:26.666Z,102073.96
2022-08-25T00:37:55.364Z,102076.05
2022-08-25T00:40:26.551Z,102073.58
2022-08-25T00:42:56.315Z,102072.52
2022-08-25T00:45:24.966Z,102071.63
2022-08-25T00:47:53.072Z,102071.83
2022-08-25T00:50:22.979Z,102069.66
2022-08-25T00:52:58.830Z,102068.95
2022-08-25T00:55:44.935Z,102067.70
2022-08-25T00:58:19.324Z,102071.95
2022-08-25T01:00:51.035Z,102075.69
2022-08-25T01:03:20.583Z,102079.73
2022-08-25T01:05:53.746Z,102084.36
2022-08-25T01:08:29.135Z,102083.29
2022-08-25T01:10:59.673Z,102088.76
2022-08-25T01:13:42.936Z,102092.64
2022-08-25T01:16:13.652Z,102113.05
2022-08-25T01:18:47.223Z,102132.73
2022-08-25T01:21:16.663Z,102132.65
2022-08-25T01:23:45.682Z,102132.82
2022-08-25T01:26:30.513Z,102129.40
2022-08-25T01:29:20.982Z,102130.27
2022-08-25T01:31:51.248Z,102138.94
2022-08-25T01:34:21.623Z,102140.66
2022-08-25T01:36:50.000Z,102135.30
2022-08-25T01:39:18.514Z,102134.33
2022-08-25T01:42:05.900Z,102135.66
2022-08-25T01:44:37.351Z,102133.45
2022-08-25T01:47:07.384Z,102128.06
2022-08-25T01:49:36.054Z,102128.70
2022-08-25T01:52:12.854Z,102133.23
2022-08-25T01:54:40.773Z,102120.75
2022-08-25T01:57:09.627Z,102106.48
2022-08-25T01:59:37.908Z,102096.48
2022-08-25T02:02:06.601Z,102088.13
2022-08-25T02:04:34.981Z,102074.66
2022-08-25T02:07:06.740Z,102065.63
2022-08-25T02:09:36.217Z,102064.02
2022-08-25T02:12:04.943Z,102053.92
2022-08-25T02:14:33.141Z,102044.20
2022-08-25T02:17:01.218Z,102028.95
2022-08-25T02:19:31.538Z,102022.84
2022-08-25T02:22:00.685Z,102022.23
2022-08-25T02:24:29.370Z,102032.49
2022-08-25T02:26:58.322Z,102043.86
2022-08-25T02:29:26.578Z,102048.11
2022-08-25T02:31:54.572Z,102047.41
2022-08-25T02:34:23.452Z,102046.70
2022-08-25T02:36:51.526Z,102050.80
2022-08-25T02:39:19.682Z,102045.69
2022-08-25T02:41:47.670Z,102044.98
2022-08-25T02:44:15.664Z,102042.33
2022-08-25T02:46:43.794Z,102038.96
2022-08-25T02:49:11.970Z,102034.70
2022-08-25T02:51:40.140Z,102032.25
2022-08-25T02:54:08.207Z,102029.91
2022-08-25T02:56:36.437Z,102030.64
2022-08-25T02:59:05.805Z,102035.24
2022-08-25T03:01:34.109Z,102035.79
2022-08-25T03:04:02.672Z,102036.30
2022-08-25T03:06:30.773Z,102037.52
2022-08-25T03:08:59.087Z,102033.41
2022-08-25T03:11:27.542Z,102036.03
2022-08-25T03:13:56.664Z,102032.14
2022-08-25T03:16:27.851Z,102028.42
2022-08-25T03:18:57.538Z,102027.02
2022-08-25T03:21:26.439Z,102028.61
2022-08-25T03:23:54.578Z,102025.08
2022-08-25T03:26:42.102Z,102022.23
2022-08-25T03:29:11.406Z,102022.75
2022-08-25T03:31:39.926Z,102019.74
2022-08-25T03:34:08.154Z,102017.44
2022-08-25T03:36:36.379Z,102011.95
2022-08-25T03:39:05.247Z,102013.20
2022-08-25T03:41:34.213Z,102013.35
2022-08-25T03:44:05.082Z,102009.63
2022-08-25T03:46:59.376Z,102012.61
2022-08-25T03:49:27.449Z,102011.90
2022-08-25T03:51:59.612Z,102005.52
2022-08-25T03:54:28.094Z,102000.92
2022-08-25T03:56:56.228Z,102005.70
2022-08-25T03:59:24.498Z,102002.00
2022-08-25T04:01:55.147Z,102010.65
2022-08-25T04:04:23.868Z,102007.97
2022-08-25T04:06:53.090Z,102009.52
2022-08-25T04:09:21.117Z,102012.66
2022-08-25T04:11:52.969Z,102013.34
2022-08-25T04:14:23.898Z,102018.98
2022-08-25T04:16:53.156Z,102018.40
2022-08-25T04:19:22.397Z,102018.36
2022-08-25T04:21:51.908Z,102017.60
2022-08-25T04:24:24.711Z,102014.55
2022-08-25T04:26:53.328Z,102017.48
2022-08-25T04:29:23.939Z,102018.83
2022-08-25T04:31:54.029Z,102015.20
2022-08-25T04:34:29.543Z,102020.77
2022-08-25T04:37:01.880Z,102018.20
2022-08-25T04:39:30.384Z,102017.44
2022-08-25T04:42:00.667Z,102017.48
2022-08-25T04:44:30.690Z,102019.64
2022-08-25T04:46:59.257Z,102015.27
2022-08-25T04:49:28.405Z,102014.75
2022-08-25T04:51:57.905Z,102009.93
2022-08-25T04:54:26.694Z,102003.65
2022-08-25T04:56:58.479Z,102000.53
2022-08-25T04:59:30.383Z,101998.37
2022-08-25T05:02:03.483Z,101999.14
2022-08-25T05:04:33.070Z,101998.77
2022-08-25T05:07:02.184Z,102000.09
2022-08-25T05:09:32.278Z,102003.99
2022-08-25T05:12:04.905Z,102004.09
2022-08-25T05:14:34.501Z,102003.41
2022-08-25T05:17:03.083Z,102003.23
2022-08-25T05:19:32.182Z,102005.36
2022-08-25T05:22:00.253Z,102001.46
2022-08-25T05:24:28.430Z,102007.91
2022-08-25T05:26:57.613Z,102003.00
2022-08-25T05:29:27.219Z,102006.33
2022-08-25T05:31:55.462Z,102008.70
2022-08-25T05:34:24.892Z,102009.66
2022-08-25T05:36:53.122Z,102006.31
2022-08-25T05:39:21.111Z,102004.16
2022-08-25T05:41:49.248Z,102005.74
2022-08-25T05:44:20.901Z,102007.71
2022-08-25T05:46:50.168Z,102006.46
2022-08-25T05:49:18.942Z,102002.71
2022-08-25T05:51:47.027Z,102001.42
2022-08-25T05:54:15.307Z,102000.95
2022-08-25T05:56:43.499Z,102002.29
2022-08-25T05:59:11.532Z,102005.16
2022-08-25T06:01:58.092Z,102003.96
2022-08-25T06:04:26.287Z,102010.73
2022-08-25T06:06:55.093Z,102013.44
2022-08-25T06:09:24.510Z,102009.08
2022-08-25T06:11:55.022Z,102008.23
2022-08-25T06:14:25.064Z,102007.03
2022-08-25T06:16:53.346Z,102008.63
2022-08-25T06:19:23.667Z,102013.02
2022-08-25T06:22:01.044Z,102017.44
2022-08-25T06:24:29.718Z,102015.48
2022-08-25T06:26:58.158Z,102025.54
2022-08-25T06:29:26.810Z,102025.64
2022-08-25T06:31:55.121Z,102029.08
2022-08-25T06:34:24.022Z,102031.97
2022-08-25T06:36:52.608Z,102040.75
2022-08-25T06:39:21.616Z,102045.24
2022-08-25T06:41:54.989Z,102051.54
2022-08-25T06:44:27.825Z,102055.55
2022-08-25T06:46:56.063Z,102063.45
2022-08-25T06:49:29.274Z,102071.14
2022-08-25T06:51:59.440Z,102076.61
2022-08-25T06:54:27.671Z,102082.65
2022-08-25T06:56:55.740Z,102091.79
2022-08-25T06:59:32.298Z,102098.44
2022-08-25T07:02:03.163Z,102102.20
2022-08-25T07:04:33.733Z,102101.35
2022-08-25T07:07:02.158Z,102106.80
2022-08-25T07:09:30.630Z,102108.92
2022-08-25T07:11:59.120Z,102111.89
2022-08-25T07:14:27.294Z,102113.09
2022-08-25T07:16:55.770Z,102114.90
2022-08-25T07:19:24.038Z,102116.71
2022-08-25T07:21:53.288Z,102117.87
2022-08-25T07:24:22.844Z,102118.70
2022-08-25T07:26:51.661Z,102120.89
2022-08-25T07:29:31.718Z,102125.11
2022-08-25T07:32:02.976Z,102125.41
2022-08-25T07:34:52.562Z,102126.73
2022-08-25T07:40:19.027Z,102130.38
2022-08-25T07:42:49.666Z,102134.11
2022-08-25T07:45:20.800Z,102134.91
2022-08-25T07:47:51.652Z,102135.02
2022-08-25T07:50:21.400Z,102134.67
2022-08-25T07:52:55.012Z,102134.25
2022-08-25T07:55:28.934Z,102136.59
2022-08-25T07:57:58.138Z,102128.48
2022-08-25T08:00:29.950Z,102120.27
2022-08-25T08:02:59.244Z,102118.31
2022-08-25T08:05:28.603Z,102104.92
2022-08-25T08:07:57.390Z,102099.86
2022-08-25T08:10:53.566Z,102095.41
2022-08-25T08:13:17.711Z,102085.11
2022-08-25T08:15:47.528Z,102077.04
2022-08-25T08:18:16.284Z,102073.48
2022-08-25T08:20:46.960Z,102075.51
2022-08-25T08:23:16.665Z,102072.59
2022-08-25T08:25:44.849Z,102073.45
2022-08-25T08:28:12.963Z,102072.00
2022-08-25T08:30:53.734Z,102069.92
2022-08-25T08:33:23.244Z,102059.20
2022-08-25T08:36:05.192Z,102057.52
2022-08-25T08:38:37.348Z,102048.27
2022-08-25T08:41:29.829Z,102048.34
2022-08-25T08:44:12.042Z,102045.58
2022-08-25T08:46:56.652Z,102042.55
2022-08-25T08:49:41.032Z,102037.60
2022-08-25T08:52:15.831Z,102035.45
2022-08-25T08:54:50.660Z,102028.86
2022-08-25T08:57:23.951Z,102021.17
2022-08-25T08:59:58.332Z,102023.29
2022-08-25T09:02:39.119Z,102024.59
2022-08-25T09:05:23.328Z,102016.52
2022-08-25T09:07:56.265Z,102010.38
2022-08-25T09:10:27.131Z,102010.48
2022-08-25T09:13:01.349Z,102011.25
2022-08-25T09:16:13.218Z,102015.98
2022-08-25T09:19:21.216Z,102015.05
2022-08-25T09:22:35.624Z,102008.84
2022-08-25T09:25:10.715Z,102001.98
2022-08-25T09:28:00.961Z,101998.73
2022-08-25T09:30:45.842Z,101991.54
2022-08-25T09:33:21.177Z,101992.48
2022-08-25T09:35:53.598Z,101991.17
2022-08-25T09:38:23.084Z,101988.02
2022-08-25T09:40:56.240Z,101985.50
2022-08-25T09:43:24.291Z,101980.35
2022-08-25T09:46:03.293Z,101981.49
2022-08-25T09:48:41.105Z,101984.34
2022-08-25T09:51:21.327Z,101989.23
2022-08-25T09:53:54.500Z,101988.18
2022-08-25T09:56:26.045Z,101990.54
2022-08-25T09:59:03.082Z,101989.57
2022-08-25T10:01:34.824Z,101985.66
2022-08-25T10:04:06.040Z,101986.33
2022-08-25T10:06:42.968Z,101987.93
2022-08-25T10:09:23.389Z,101986.20
2022-08-25T10:11:57.963Z,101982.44
2022-08-25T10:14:26.081Z,101975.34
2022-08-25T10:17:13.711Z,101972.53
2022-08-25T10:19:42.924Z,101975.33
2022-08-25T10:22:32.663Z,101969.43
2022-08-25T10:25:04.679Z,101962.75
2022-08-25T10:28:06.065Z,101956.02
2022-08-25T10:30:55.817Z,101953.80
2022-08-25T10:33:45.606Z,101960.11
2022-08-25T10:36:37.382Z,101960.40
2022-08-25T10:39:34.110Z,101955.64
2022-08-25T10:42:01.915Z,101955.19
2022-08-25T10:45:18.180Z,101956.13
2022-08-25T10:47:55.725Z,101951.00
2022-08-25T10:50:45.586Z,101946.23
2022-08-25T10:53:28.481Z,101947.70
2022-08-25T10:56:07.159Z,101944.66
2022-08-25T10:58:54.501Z,101945.49
2022-08-25T11:02:07.340Z,101949.39
2022-08-25T11:05:10.036Z,101953.69
2022-08-25T11:07:46.313Z,101949.73
2022-08-25T11:10:25.817Z,101954.52
2022-08-25T11:12:57.886Z,101956.11
2022-08-25T11:15:37.278Z,101953.94
2022-08-25T11:18:15.048Z,101951.20
2022-08-25T11:21:00.673Z,101954.23
2022-08-25T11:23:35.944Z,101953.02
2022-08-25T11:26:11.751Z,101946.27
2022-08-25T11:29:06.124Z,101951.28
2022-08-25T11:32:01.255Z,101945.23
2022-08-25T11:34:35.849Z,101942.48
2022-08-25T11:37:14.578Z,101934.66
2022-08-25T11:40:19.159Z,101933.70
2022-08-25T11:42:58.797Z,101932.27
2022-08-25T11:45:54.336Z,101928.37
2022-08-25T11:48:30.855Z,101931.75
2022-08-25T11:51:11.263Z,101927.26
2022-08-25T11:53:44.002Z,101926.91
2022-08-25T11:56:40.195Z,101924.35
2022-08-25T11:59:09.338Z,101922.83
2022-08-25T12:01:40.559Z,101925.34
2022-08-25T12:04:34.072Z,101922.09
2022-08-25T12:07:19.283Z,101927.83
2022-08-25T12:09:51.099Z,101929.81
2022-08-25T12:12:38.256Z,101933.63
2022-08-25T12:15:27.074Z,101930.17
2022-08-25T12:18:33.948Z,101919.40
2022-08-25T12:21:02.704Z,101917.45
2022-08-25T12:24:04.283Z,101918.26
2022-08-25T12:26:48.020Z,101916.01
2022-08-25T12:29:31.571Z,101918.65
2022-08-25T12:32:11.722Z,101913.93
2022-08-25T12:35:03.943Z,101914.15
2022-08-25T12:37:32.045Z,101911.80
2022-08-25T12:40:04.386Z,101908.72
2022-08-25T12:42:39.796Z,101902.67
2022-08-25T12:45:31.829Z,101898.64
2022-08-25T12:48:28.502Z,101900.58
2022-08-25T12:50:58.063Z,101902.14
2022-08-25T12:53:36.438Z,101899.52
2022-08-25T12:56:19.132Z,101895.40
2022-08-25T12:59:02.533Z,101896.07
2022-08-25T13:02:03.215Z,101895.52
2022-08-25T13:05:16.527Z,101895.06
2022-08-25T13:08:14.073Z,101889.15
2022-08-25T13:10:56.528Z,101887.48
2022-08-25T13:13:24.483Z,101888.51
2022-08-25T13:16:02.193Z,101886.02
2022-08-25T13:18:34.121Z,101880.77
2022-08-25T13:21:14.015Z,101883.59
2022-08-25T13:23:46.043Z,101882.70
2022-08-25T13:26:21.438Z,101882.14
2022-08-25T13:29:17.678Z,101885.88
2022-08-25T13:31:58.147Z,101880.50
2022-08-25T13:34:44.394Z,101875.95
2022-08-25T13:37:32.709Z,101870.61
2022-08-25T13:40:17.782Z,101867.68
2022-08-25T13:42:55.619Z,101860.36
2022-08-25T13:45:28.899Z,101858.29
2022-08-25T13:48:00.010Z,101852.73
2022-08-25T13:50:30.954Z,101850.52
2022-08-25T13:53:13.453Z,101856.55
2022-08-25T13:55:50.648Z,101849.73
2022-08-25T13:58:39.334Z,101850.23
2022-08-25T14:01:48.337Z,101847.14
2022-08-25T14:04:29.625Z,101838.55
2022-08-25T14:07:21.137Z,101839.01
2022-08-25T14:09:56.137Z,101836.21
2022-08-25T14:12:31.090Z,101834.48
2022-08-25T14:15:00.691Z,101836.28
2022-08-25T14:17:39.695Z,101830.96
2022-08-25T14:20:22.067Z,101830.09
2022-08-25T14:22:57.877Z,101831.20
2022-08-25T14:25:30.658Z,101829.61
2022-08-25T14:28:10.720Z,101832.94
2022-08-25T14:30:51.829Z,101827.98
2022-08-25T14:33:23.685Z,101830.11
2022-08-25T14:35:53.901Z,101828.82
2022-08-25T14:38:23.982Z,101830.63
2022-08-25T14:40:53.876Z,101832.13
2022-08-25T14:43:24.060Z,101831.67
2022-08-25T14:46:03.585Z,101828.69
2022-08-25T14:48:43.195Z,101830.55
2022-08-25T14:51:13.725Z,101830.79
2022-08-25T14:53:43.673Z,101828.48
2022-08-25T14:56:12.119Z,101828.93
2022-08-25T14:58:51.063Z,101825.59
2022-08-25T15:01:28.767Z,101825.48
2022-08-25T15:04:07.353Z,101826.55
2022-08-25T15:06:36.705Z,101826.01
2022-08-25T15:09:11.365Z,101820.28
2022-08-25T15:11:50.778Z,101817.67
2022-08-25T15:14:28.923Z,101818.08
2022-08-25T15:17:02.725Z,101814.29
2022-08-25T15:19:31.264Z,101807.42
2022-08-25T15:21:59.756Z,101812.63
2022-08-25T15:24:29.022Z,101809.08
2022-08-25T15:27:04.123Z,101813.63
2022-08-25T15:29:35.052Z,101815.47
2022-08-25T15:32:08.846Z,101817.87
2022-08-25T15:34:37.662Z,101814.28
2022-08-25T15:37:14.046Z,101817.94
2022-08-25T15:39:44.479Z,101817.93
2022-08-25T15:42:13.020Z,101814.47
2022-08-25T15:44:41.796Z,101808.58
2022-08-25T15:47:22.557Z,101811.50
2022-08-25T15:49:51.777Z,101804.63
2022-08-25T15:52:19.856Z,101807.19
2022-08-25T15:54:48.025Z,101809.13
2022-08-25T15:57:24.322Z,101807.60
2022-08-25T15:59:53.432Z,101801.77
2022-08-25T16:02:22.622Z,101800.22
2022-08-25T16:04:51.774Z,101795.58
2022-08-25T16:07:20.574Z,101794.45
2022-08-25T16:09:50.937Z,101792.57
2022-08-25T16:12:19.267Z,101786.83
2022-08-25T16:14:47.719Z,101786.18
2022-08-25T16:17:16.735Z,101785.64
2022-08-25T16:19:45.256Z,101784.48
2022-08-25T16:22:13.809Z,101785.08
2022-08-25T16:24:46.488Z,101783.14
2022-08-25T16:27:15.216Z,101787.09
2022-08-25T16:29:44.559Z,101782.27
2022-08-25T16:32:14.436Z,101781.48
2022-08-25T16:34:43.085Z,101781.02
2022-08-25T16:37:13.674Z,101776.36
2022-08-25T16:39:46.155Z,101774.95
2022-08-25T16:42:14.743Z,101778.45
2022-08-25T16:44:42.965Z,101779.45
2022-08-25T16:47:13.945Z,101778.91
2022-08-25T16:49:42.789Z,101777.38
2022-08-25T16:52:30.987Z,101774.97
2022-08-25T16:55:28.363Z,101776.88
2022-08-25T16:58:08.703Z,101775.46
2022-08-25T17:00:41.563Z,101780.17
2022-08-25T17:03:13.230Z,101778.89
2022-08-25T17:05:42.884Z,101778.63
2022-08-25T17:08:30.687Z,101782.52
2022-08-25T17:11:08.704Z,101778.88
2022-08-25T17:13:39.571Z,101777.71
2022-08-25T17:16:14.591Z,101781.63
2022-08-25T17:18:43.707Z,101780.58
2022-08-25T17:21:24.466Z,101779.38
2022-08-25T17:23:55.602Z,101774.94
2022-08-25T17:26:27.920Z,101774.59
2022-08-25T17:28:59.426Z,101772.26
2022-08-25T17:31:29.867Z,101773.50
2022-08-25T17:33:59.583Z,101774.43
2022-08-25T17:36:28.155Z,101773.52
2022-08-25T17:38:56.851Z,101772.91
2022-08-25T17:41:26.134Z,101771.98
2022-08-25T17:43:54.350Z,101771.95
2022-08-25T17:46:22.527Z,101774.95
2022-08-25T17:48:50.801Z,101778.84
2022-08-25T17:51:18.991Z,101776.50
2022-08-25T17:53:48.310Z,101776.79
2022-08-25T17:56:20.006Z,101779.25
2022-08-25T17:58:48.525Z,101783.52
2022-08-25T18:01:27.193Z,101781.70
2022-08-25T18:03:57.546Z,101784.41
2022-08-25T18:06:27.044Z,101785.79
2022-08-25T18:08:59.267Z,101781.61
2022-08-25T18:11:28.937Z,101780.80
2022-08-25T18:13:58.845Z,101781.27
2022-08-25T18:16:27.579Z,101778.86
2022-08-25T18:18:56.160Z,101775.23
2022-08-25T18:21:30.227Z,101780.29
2022-08-25T18:23:59.204Z,101776.69
2022-08-25T18:26:27.974Z,101774.57
2022-08-25T18:28:56.007Z,101775.98
2022-08-25T18:31:25.449Z,101773.64
2022-08-25T18:33:53.627Z,101770.29
2022-08-25T18:36:21.680Z,101772.44
2022-08-25T18:39:10.727Z,101773.43
2022-08-25T18:41:45.161Z,101773.40
2022-08-25T18:44:15.577Z,101776.36
2022-08-25T18:46:45.429Z,101774.20
2022-08-25T18:49:15.665Z,101772.90
2022-08-25T18:51:45.083Z,101769.44
2022-08-25T18:54:22.834Z,101772.87
2022-08-25T18:56:53.481Z,101774.17
2022-08-25T18:59:23.755Z,101776.35
2022-08-25T19:01:54.230Z,101781.03
2022-08-25T19:04:31.200Z,101782.51
2022-08-25T19:07:02.051Z,101783.08
2022-08-25T19:09:31.624Z,101783.85
2022-08-25T19:12:01.159Z,101781.94
2022-08-25T19:14:29.539Z,101783.55
2022-08-25T19:17:00.926Z,101782.30
2022-08-25T19:19:29.368Z,101783.60
2022-08-25T19:21:58.299Z,101787.16
2022-08-25T19:24:28.726Z,101789.27
2022-08-25T19:26:58.109Z,101780.89
2022-08-25T19:29:26.658Z,101777.17
2022-08-25T19:32:01.111Z,101778.48
2022-08-25T19:34:33.495Z,101773.20
2022-08-25T19:37:04.589Z,101776.81
2022-08-25T19:39:35.899Z,101773.52
2022-08-25T19:42:08.112Z,101772.87
2022-08-25T19:44:56.251Z,101774.91
2022-08-25T19:47:24.454Z,101777.39
2022-08-25T19:52:26.697Z,101772.06
2022-08-25T19:54:54.924Z,101770.19
2022-08-25T19:57:28.169Z,101769.79
2022-08-25T20:00:21.462Z,101767.08
2022-08-25T20:02:51.219Z,101769.70
2022-08-25T20:05:23.815Z,101764.64
2022-08-25T20:07:55.937Z,101763.10
2022-08-25T20:10:31.720Z,101760.45
2022-08-25T20:13:00.105Z,101757.58
2022-08-25T20:15:28.277Z,101752.41
2022-08-25T20:18:02.926Z,101749.43
2022-08-25T20:20:32.443Z,101747.98
2022-08-25T20:23:21.780Z,101746.52
2022-08-25T20:25:51.699Z,101742.42
2022-08-25T20:28:19.828Z,101739.08
2022-08-25T20:30:47.895Z,101739.65
2022-08-25T20:33:22.621Z,101743.17
2022-08-25T20:35:53.182Z,101741.42
2022-08-25T20:38:21.576Z,101747.36
2022-08-25T20:40:49.862Z,101751.27
2022-08-25T20:43:18.147Z,101752.89
2022-08-25T20:45:49.393Z,101753.96
2022-08-25T20:48:17.884Z,101758.56
2022-08-25T20:50:45.924Z,101758.54
2022-08-25T20:53:26.432Z,101756.52
2022-08-25T20:55:54.656Z,101754.34
2022-08-25T20:58:22.832Z,101759.98
2022-08-25T21:00:52.028Z,101756.70
2022-08-25T21:03:21.023Z,101762.51
2022-08-25T21:05:53.518Z,101761.31
2022-08-25T21:08:23.616Z,101762.02
2022-08-25T21:10:51.990Z,101763.16
2022-08-25T21:13:20.058Z,101758.60
2022-08-25T21:15:50.913Z,101755.16
2022-08-25T21:18:19.016Z,101754.16
2022-08-25T21:20:47.342Z,101754.55
2022-08-25T21:23:15.415Z,101752.52
2022-08-25T21:25:43.818Z,101754.98
2022-08-25T21:28:12.648Z,101755.05
2022-08-25T21:30:44.752Z,101756.27
2022-08-25T21:33:15.787Z,101755.23
2022-08-25T21:35:44.212Z,101752.83
2022-08-25T21:38:15.382Z,101756.08
2022-08-25T21:40:44.984Z,101754.38
2022-08-25T21:43:13.260Z,101747.30
2022-08-25T21:45:46.806Z,101745.33
2022-08-25T21:48:15.781Z,101744.61
2022-08-25T21:50:43.955Z,101739.83
2022-08-25T21:53:12.057Z,101738.96
2022-08-25T21:55:42.158Z,101739.35
2022-08-25T21:58:10.364Z,101741.05
2022-08-25T22:00:38.586Z,101742.34
2022-08-25T22:03:07.696Z,101738.85
2022-08-25T22:05:37.735Z,101737.48
2022-08-25T22:08:05.870Z,101740.23
2022-08-25T22:10:34.044Z,101738.16
2022-08-25T22:13:04.131Z,101734.82
2022-08-25T22:15:32.252Z,101737.66
2022-08-25T22:18:00.556Z,101735.40
2022-08-25T22:20:29.663Z,101733.59
2022-08-25T22:22:58.150Z,101727.54
2022-08-25T22:25:28.186Z,101728.31
2022-08-25T22:27:57.336Z,101726.20
2022-08-25T22:30:26.167Z,101725.55
2022-08-25T22:32:59.278Z,101726.11
2022-08-25T22:35:30.985Z,101724.20
2022-08-25T22:38:01.047Z,101721.61
2022-08-25T22:40:30.306Z,101716.20
2022-08-25T22:42:58.328Z,101714.17
2022-08-25T22:45:27.201Z,101710.58
2022-08-25T22:47:55.600Z,101705.20
2022-08-25T22:50:23.754Z,101708.52
2022-08-25T22:52:53.876Z,101705.65
2022-08-25T22:55:22.131Z,101699.58
2022-08-25T22:57:50.313Z,101695.29
2022-08-25T23:00:23.160Z,101695.05
2022-08-25T23:02:53.385Z,101691.80
2022-08-25T23:05:21.674Z,101689.63
2022-08-25T23:07:50.750Z,101687.98
2022-08-25T23:10:20.855Z,101684.96
2022-08-25T23:12:48.880Z,101682.84
2022-08-25T23:15:17.060Z,101681.42
2022-08-25T23:17:45.025Z,101682.09
2022-08-25T23:20:31.865Z,101680.08
2022-08-25T23:23:01.315Z,101679.30
2022-08-25T23:25:29.853Z,101679.25
2022-08-25T23:27:58.805Z,101677.58
2022-08-25T23:30:27.647Z,101678.75
2022-08-25T23:32:58.394Z,101671.55
2022-08-25T23:35:26.910Z,101672.90
2022-08-25T23:37:58.565Z,101675.64
2022-08-25T23:40:27.812Z,101672.33
2022-08-25T23:42:55.930Z,101672.91
2022-08-25T23:45:24.063Z,101666.92
2022-08-25T23:47:54.020Z,101670.52
2022-08-25T23:50:22.272Z,101668.95
2022-08-25T23:52:50.505Z,101663.43
2022-08-25T23:55:18.565Z,101660.59
2022-08-25T23:57:46.745Z,101656.88
